sensor_id;sensor_type;location;lat;lon;timestamp;P1;durP1;ratioP1;P2;durP2;ratioP2
83769;SDS011;73763;48.936;9.300;2023-12-07T00:01:13;14.70;;;11.73;;
83769;SDS011;73763;48.936;9.300;2023-12-07T00:03:38;14.32;;;11.20;;
83769;SDS011;73763;48.936;9.300;2023-12-07T00:06:04;14.20;;;11.40;;
83769;SDS011;73763;48.936;9.300;2023-12-07T00:08:30;16.02;;;11.65;;
83769;SDS011;73763;48.936;9.300;2023-12-07T00:10:55;14.25;;;11.48;;
83769;SDS011;73763;48.936;9.300;2023-12-07T00:13:21;15.23;;;12.10;;
83769;SDS011;73763;48.936;9.300;2023-12-07T00:15:46;14.00;;;11.25;;
83769;SDS011;73763;48.936;9.300;2023-12-07T00:18:12;13.87;;;11.00;;
83769;SDS011;73763;48.936;9.300;2023-12-07T00:20:37;13.27;;;10.53;;
83769;SDS011;73763;48.936;9.300;2023-12-07T00:23:03;14.97;;;10.87;;
83769;SDS011;73763;48.936;9.300;2023-12-07T00:25:28;15.07;;;10.70;;
83769;SDS011;73763;48.936;9.300;2023-12-07T00:27:54;13.73;;;10.90;;
83769;SDS011;73763;48.936;9.300;2023-12-07T00:30:19;13.50;;;10.67;;
83769;SDS011;73763;48.936;9.300;2023-12-07T00:32:45;13.60;;;11.20;;
83769;SDS011;73763;48.936;9.300;2023-12-07T00:35:10;15.20;;;11.23;;
83769;SDS011;73763;48.936;9.300;2023-12-07T00:37:36;14.85;;;11.82;;
83769;SDS011;73763;48.936;9.300;2023-12-07T00:40:02;14.20;;;11.30;;
83769;SDS011;73763;48.936;9.300;2023-12-07T00:42:27;14.80;;;11.77;;
83769;SDS011;73763;48.936;9.300;2023-12-07T00:44:53;15.63;;;12.35;;
83769;SDS011;73763;48.936;9.300;2023-12-07T00:47:19;16.13;;;12.05;;
83769;SDS011;73763;48.936;9.300;2023-12-07T00:49:44;16.03;;;11.23;;
83769;SDS011;73763;48.936;9.300;2023-12-07T00:52:10;13.10;;;10.32;;
83769;SDS011;73763;48.936;9.300;2023-12-07T00:54:35;13.60;;;10.77;;
83769;SDS011;73763;48.936;9.300;2023-12-07T00:57:02;15.13;;;11.57;;
83769;SDS011;73763;48.936;9.300;2023-12-07T00:59:27;14.60;;;11.63;;
83769;SDS011;73763;48.936;9.300;2023-12-07T01:01:53;15.80;;;11.50;;
83769;SDS011;73763;48.936;9.300;2023-12-07T01:04:18;14.40;;;10.70;;
83769;SDS011;73763;48.936;9.300;2023-12-07T01:06:44;14.10;;;10.88;;
83769;SDS011;73763;48.936;9.300;2023-12-07T01:09:09;14.03;;;10.80;;
83769;SDS011;73763;48.936;9.300;2023-12-07T01:11:35;15.75;;;11.77;;
83769;SDS011;73763;48.936;9.300;2023-12-07T01:14:00;16.43;;;12.17;;
83769;SDS011;73763;48.936;9.300;2023-12-07T01:16:26;16.33;;;11.87;;
83769;SDS011;73763;48.936;9.300;2023-12-07T01:18:51;13.90;;;11.23;;
83769;SDS011;73763;48.936;9.300;2023-12-07T01:21:17;13.87;;;10.83;;
83769;SDS011;73763;48.936;9.300;2023-12-07T01:23:42;13.13;;;10.95;;
83769;SDS011;73763;48.936;9.300;2023-12-07T01:26:08;15.37;;;10.40;;
83769;SDS011;73763;48.936;9.300;2023-12-07T01:28:33;15.50;;;11.98;;
83769;SDS011;73763;48.936;9.300;2023-12-07T01:30:59;17.23;;;12.17;;
83769;SDS011;73763;48.936;9.300;2023-12-07T01:33:24;14.93;;;11.48;;
83769;SDS011;73763;48.936;9.300;2023-12-07T01:35:50;14.83;;;11.50;;
83769;SDS011;73763;48.936;9.300;2023-12-07T01:38:15;12.93;;;10.75;;
83769;SDS011;73763;48.936;9.300;2023-12-07T01:40:41;13.60;;;10.93;;
83769;SDS011;73763;48.936;9.300;2023-12-07T01:43:06;14.23;;;10.85;;
83769;SDS011;73763;48.936;9.300;2023-12-07T01:45:32;13.80;;;11.47;;
83769;SDS011;73763;48.936;9.300;2023-12-07T01:47:57;14.95;;;11.45;;
83769;SDS011;73763;48.936;9.300;2023-12-07T01:50:23;14.73;;;11.23;;
83769;SDS011;73763;48.936;9.300;2023-12-07T01:52:49;12.03;;;9.73;;
83769;SDS011;73763;48.936;9.300;2023-12-07T01:55:20;14.40;;;10.82;;
83769;SDS011;73763;48.936;9.300;2023-12-07T01:57:47;13.20;;;10.75;;
83769;SDS011;73763;48.936;9.300;2023-12-07T02:00:13;13.43;;;10.80;;
83769;SDS011;73763;48.936;9.300;2023-12-07T02:02:39;12.98;;;10.60;;
83769;SDS011;73763;48.936;9.300;2023-12-07T02:05:05;12.95;;;10.48;;
83769;SDS011;73763;48.936;9.300;2023-12-07T02:07:31;12.98;;;10.50;;
83769;SDS011;73763;48.936;9.300;2023-12-07T02:09:58;15.73;;;11.63;;
83769;SDS011;73763;48.936;9.300;2023-12-07T02:12:24;14.75;;;12.20;;
83769;SDS011;73763;48.936;9.300;2023-12-07T02:14:51;18.48;;;13.88;;
83769;SDS011;73763;48.936;9.300;2023-12-07T02:17:18;18.08;;;14.85;;
83769;SDS011;73763;48.936;9.300;2023-12-07T02:19:52;19.53;;;15.93;;
83769;SDS011;73763;48.936;9.300;2023-12-07T02:22:42;18.40;;;15.07;;
83769;SDS011;73763;48.936;9.300;2023-12-07T02:25:12;21.10;;;14.88;;
83769;SDS011;73763;48.936;9.300;2023-12-07T02:27:40;18.23;;;14.32;;
83769;SDS011;73763;48.936;9.300;2023-12-07T02:30:07;18.05;;;14.00;;
83769;SDS011;73763;48.936;9.300;2023-12-07T02:32:34;19.43;;;14.77;;
83769;SDS011;73763;48.936;9.300;2023-12-07T02:35:03;17.77;;;13.93;;
83769;SDS011;73763;48.936;9.300;2023-12-07T02:37:31;18.25;;;14.40;;
83769;SDS011;73763;48.936;9.300;2023-12-07T02:40:00;20.52;;;15.55;;
83769;SDS011;73763;48.936;9.300;2023-12-07T02:42:27;20.35;;;15.35;;
83769;SDS011;73763;48.936;9.300;2023-12-07T02:44:52;21.77;;;17.02;;
83769;SDS011;73763;48.936;9.300;2023-12-07T02:47:18;24.63;;;17.07;;
83769;SDS011;73763;48.936;9.300;2023-12-07T02:49:44;21.07;;;15.63;;
83769;SDS011;73763;48.936;9.300;2023-12-07T02:52:09;21.55;;;15.85;;
83769;SDS011;73763;48.936;9.300;2023-12-07T02:54:35;19.45;;;14.85;;
83769;SDS011;73763;48.936;9.300;2023-12-07T02:57:01;20.07;;;15.50;;
83769;SDS011;73763;48.936;9.300;2023-12-07T02:59:26;22.52;;;17.20;;
83769;SDS011;73763;48.936;9.300;2023-12-07T03:01:52;20.03;;;15.80;;
83769;SDS011;73763;48.936;9.300;2023-12-07T03:04:17;19.67;;;15.10;;
83769;SDS011;73763;48.936;9.300;2023-12-07T03:06:43;20.23;;;15.07;;
83769;SDS011;73763;48.936;9.300;2023-12-07T03:09:08;20.63;;;14.77;;
83769;SDS011;73763;48.936;9.300;2023-12-07T03:11:34;19.88;;;15.07;;
83769;SDS011;73763;48.936;9.300;2023-12-07T03:13:59;18.27;;;14.63;;
83769;SDS011;73763;48.936;9.300;2023-12-07T03:16:25;19.13;;;15.43;;
83769;SDS011;73763;48.936;9.300;2023-12-07T03:18:50;19.47;;;14.43;;
83769;SDS011;73763;48.936;9.300;2023-12-07T03:21:16;20.85;;;16.23;;
83769;SDS011;73763;48.936;9.300;2023-12-07T03:23:41;23.23;;;16.93;;
83769;SDS011;73763;48.936;9.300;2023-12-07T03:26:07;26.08;;;18.20;;
83769;SDS011;73763;48.936;9.300;2023-12-07T03:28:32;24.33;;;19.03;;
83769;SDS011;73763;48.936;9.300;2023-12-07T03:30:58;27.75;;;20.10;;
83769;SDS011;73763;48.936;9.300;2023-12-07T03:33:23;27.40;;;21.03;;
83769;SDS011;73763;48.936;9.300;2023-12-07T03:35:49;30.80;;;22.80;;
83769;SDS011;73763;48.936;9.300;2023-12-07T03:38:14;32.47;;;23.37;;
83769;SDS011;73763;48.936;9.300;2023-12-07T03:40:40;31.93;;;23.23;;
83769;SDS011;73763;48.936;9.300;2023-12-07T03:43:05;34.80;;;24.48;;
83769;SDS011;73763;48.936;9.300;2023-12-07T03:45:31;36.10;;;25.50;;
83769;SDS011;73763;48.936;9.300;2023-12-07T03:47:56;36.05;;;24.63;;
83769;SDS011;73763;48.936;9.300;2023-12-07T03:50:22;40.43;;;28.17;;
83769;SDS011;73763;48.936;9.300;2023-12-07T03:52:48;45.53;;;29.33;;
83769;SDS011;73763;48.936;9.300;2023-12-07T03:55:13;38.47;;;26.80;;
83769;SDS011;73763;48.936;9.300;2023-12-07T03:57:39;37.87;;;26.20;;
83769;SDS011;73763;48.936;9.300;2023-12-07T04:00:05;35.25;;;24.55;;
83769;SDS011;73763;48.936;9.300;2023-12-07T04:02:32;38.97;;;26.90;;
83769;SDS011;73763;48.936;9.300;2023-12-07T04:04:57;33.78;;;24.35;;
83769;SDS011;73763;48.936;9.300;2023-12-07T04:07:23;35.20;;;24.73;;
83769;SDS011;73763;48.936;9.300;2023-12-07T04:09:48;36.03;;;25.00;;
83769;SDS011;73763;48.936;9.300;2023-12-07T04:12:14;40.83;;;25.85;;
83769;SDS011;73763;48.936;9.300;2023-12-07T04:14:39;32.13;;;23.13;;
83769;SDS011;73763;48.936;9.300;2023-12-07T04:17:05;30.38;;;21.38;;
83769;SDS011;73763;48.936;9.300;2023-12-07T04:19:30;33.10;;;23.03;;
83769;SDS011;73763;48.936;9.300;2023-12-07T04:21:56;34.73;;;23.20;;
83769;SDS011;73763;48.936;9.300;2023-12-07T04:24:21;35.42;;;23.52;;
83769;SDS011;73763;48.936;9.300;2023-12-07T04:26:47;32.70;;;22.60;;
83769;SDS011;73763;48.936;9.300;2023-12-07T04:29:12;28.92;;;21.42;;
83769;SDS011;73763;48.936;9.300;2023-12-07T04:31:38;25.77;;;19.30;;
83769;SDS011;73763;48.936;9.300;2023-12-07T04:34:03;25.02;;;17.60;;
83769;SDS011;73763;48.936;9.300;2023-12-07T04:36:29;25.00;;;18.50;;
83769;SDS011;73763;48.936;9.300;2023-12-07T04:38:54;26.83;;;19.17;;
83769;SDS011;73763;48.936;9.300;2023-12-07T04:41:20;24.63;;;17.95;;
83769;SDS011;73763;48.936;9.300;2023-12-07T04:43:45;25.53;;;18.37;;
83769;SDS011;73763;48.936;9.300;2023-12-07T04:46:11;23.55;;;17.95;;
83769;SDS011;73763;48.936;9.300;2023-12-07T04:48:36;25.30;;;17.53;;
83769;SDS011;73763;48.936;9.300;2023-12-07T04:51:02;27.47;;;18.43;;
83769;SDS011;73763;48.936;9.300;2023-12-07T04:53:28;26.27;;;20.02;;
83769;SDS011;73763;48.936;9.300;2023-12-07T04:55:53;22.70;;;17.20;;
83769;SDS011;73763;48.936;9.300;2023-12-07T04:58:19;21.70;;;16.50;;
83769;SDS011;73763;48.936;9.300;2023-12-07T05:00:44;22.57;;;16.07;;
83769;SDS011;73763;48.936;9.300;2023-12-07T05:03:10;20.80;;;16.00;;
83769;SDS011;73763;48.936;9.300;2023-12-07T05:05:35;23.90;;;16.52;;
83769;SDS011;73763;48.936;9.300;2023-12-07T05:08:01;20.13;;;16.10;;
83769;SDS011;73763;48.936;9.300;2023-12-07T05:10:26;21.25;;;15.70;;
83769;SDS011;73763;48.936;9.300;2023-12-07T05:12:52;24.97;;;16.90;;
83769;SDS011;73763;48.936;9.300;2023-12-07T05:15:17;26.10;;;16.57;;
83769;SDS011;73763;48.936;9.300;2023-12-07T05:17:43;22.60;;;16.00;;
83769;SDS011;73763;48.936;9.300;2023-12-07T05:20:08;24.20;;;16.93;;
83769;SDS011;73763;48.936;9.300;2023-12-07T05:22:34;25.98;;;16.13;;
83769;SDS011;73763;48.936;9.300;2023-12-07T05:25:00;19.40;;;15.23;;
83769;SDS011;73763;48.936;9.300;2023-12-07T05:27:25;21.47;;;16.13;;
83769;SDS011;73763;48.936;9.300;2023-12-07T05:29:51;22.10;;;15.70;;
83769;SDS011;73763;48.936;9.300;2023-12-07T05:32:16;25.83;;;17.40;;
83769;SDS011;73763;48.936;9.300;2023-12-07T05:34:42;24.87;;;17.73;;
83769;SDS011;73763;48.936;9.300;2023-12-07T05:37:07;26.42;;;19.17;;
83769;SDS011;73763;48.936;9.300;2023-12-07T05:39:33;25.70;;;18.73;;
83769;SDS011;73763;48.936;9.300;2023-12-07T05:41:58;27.30;;;18.00;;
83769;SDS011;73763;48.936;9.300;2023-12-07T05:44:24;24.63;;;18.20;;
83769;SDS011;73763;48.936;9.300;2023-12-07T05:46:49;20.30;;;15.85;;
83769;SDS011;73763;48.936;9.300;2023-12-07T05:49:15;25.27;;;18.10;;
83769;SDS011;73763;48.936;9.300;2023-12-07T05:51:40;24.83;;;18.10;;
83769;SDS011;73763;48.936;9.300;2023-12-07T05:54:06;25.83;;;18.92;;
83769;SDS011;73763;48.936;9.300;2023-12-07T05:56:31;28.37;;;20.50;;
83769;SDS011;73763;48.936;9.300;2023-12-07T05:58:57;30.47;;;20.40;;
83769;SDS011;73763;48.936;9.300;2023-12-07T06:01:22;34.00;;;23.10;;
83769;SDS011;73763;48.936;9.300;2023-12-07T06:03:48;33.43;;;22.50;;
83769;SDS011;73763;48.936;9.300;2023-12-07T06:06:13;34.45;;;22.63;;
83769;SDS011;73763;48.936;9.300;2023-12-07T06:08:39;33.07;;;21.47;;
83769;SDS011;73763;48.936;9.300;2023-12-07T06:11:05;29.60;;;21.30;;
83769;SDS011;73763;48.936;9.300;2023-12-07T06:13:30;30.95;;;20.95;;
83769;SDS011;73763;48.936;9.300;2023-12-07T06:15:56;32.85;;;21.55;;
83769;SDS011;73763;48.936;9.300;2023-12-07T06:18:22;38.10;;;24.55;;
83769;SDS011;73763;48.936;9.300;2023-12-07T06:20:47;31.83;;;21.40;;
83769;SDS011;73763;48.936;9.300;2023-12-07T06:23:13;35.67;;;22.20;;
83769;SDS011;73763;48.936;9.300;2023-12-07T06:25:39;34.30;;;22.87;;
83769;SDS011;73763;48.936;9.300;2023-12-07T06:28:04;30.60;;;21.87;;
83769;SDS011;73763;48.936;9.300;2023-12-07T06:30:30;36.13;;;22.97;;
83769;SDS011;73763;48.936;9.300;2023-12-07T06:32:55;35.58;;;22.65;;
83769;SDS011;73763;48.936;9.300;2023-12-07T06:35:21;34.97;;;23.47;;
83769;SDS011;73763;48.936;9.300;2023-12-07T06:37:47;31.50;;;21.63;;
83769;SDS011;73763;48.936;9.300;2023-12-07T06:40:12;34.85;;;22.27;;
83769;SDS011;73763;48.936;9.300;2023-12-07T06:42:38;38.03;;;23.67;;
83769;SDS011;73763;48.936;9.300;2023-12-07T06:45:03;36.70;;;23.95;;
83769;SDS011;73763;48.936;9.300;2023-12-07T06:47:29;37.40;;;24.17;;
83769;SDS011;73763;48.936;9.300;2023-12-07T06:49:55;33.37;;;22.60;;
83769;SDS011;73763;48.936;9.300;2023-12-07T06:52:20;35.40;;;23.40;;
83769;SDS011;73763;48.936;9.300;2023-12-07T06:54:46;37.65;;;23.58;;
83769;SDS011;73763;48.936;9.300;2023-12-07T06:57:11;32.70;;;22.83;;
83769;SDS011;73763;48.936;9.300;2023-12-07T06:59:37;31.23;;;21.50;;
83769;SDS011;73763;48.936;9.300;2023-12-07T07:02:03;33.90;;;22.48;;
83769;SDS011;73763;48.936;9.300;2023-12-07T07:04:28;31.75;;;21.55;;
83769;SDS011;73763;48.936;9.300;2023-12-07T07:06:54;29.03;;;19.70;;
83769;SDS011;73763;48.936;9.300;2023-12-07T07:09:20;24.35;;;18.33;;
83769;SDS011;73763;48.936;9.300;2023-12-07T07:11:48;26.65;;;19.10;;
83769;SDS011;73763;48.936;9.300;2023-12-07T07:14:14;24.88;;;17.60;;
83769;SDS011;73763;48.936;9.300;2023-12-07T07:16:39;21.93;;;16.60;;
83769;SDS011;73763;48.936;9.300;2023-12-07T07:19:05;23.92;;;16.80;;
83769;SDS011;73763;48.936;9.300;2023-12-07T07:21:30;21.40;;;16.43;;
83769;SDS011;73763;48.936;9.300;2023-12-07T07:23:56;24.20;;;16.67;;
83769;SDS011;73763;48.936;9.300;2023-12-07T07:26:21;18.40;;;13.80;;
83769;SDS011;73763;48.936;9.300;2023-12-07T07:28:47;18.60;;;14.37;;
83769;SDS011;73763;48.936;9.300;2023-12-07T07:31:13;23.63;;;16.90;;
83769;SDS011;73763;48.936;9.300;2023-12-07T07:33:38;20.87;;;15.60;;
83769;SDS011;73763;48.936;9.300;2023-12-07T07:36:04;19.85;;;14.68;;
83769;SDS011;73763;48.936;9.300;2023-12-07T07:38:29;17.15;;;13.85;;
83769;SDS011;73763;48.936;9.300;2023-12-07T07:40:55;17.73;;;14.20;;
83769;SDS011;73763;48.936;9.300;2023-12-07T07:43:20;27.10;;;21.80;;
83769;SDS011;73763;48.936;9.300;2023-12-07T07:45:46;25.47;;;19.93;;
83769;SDS011;73763;48.936;9.300;2023-12-07T07:48:14;19.60;;;15.60;;
83769;SDS011;73763;48.936;9.300;2023-12-07T07:50:40;17.83;;;14.65;;
83769;SDS011;73763;48.936;9.300;2023-12-07T07:53:05;16.97;;;13.27;;
83769;SDS011;73763;48.936;9.300;2023-12-07T07:55:31;15.60;;;13.02;;
83769;SDS011;73763;48.936;9.300;2023-12-07T07:57:56;16.43;;;13.17;;
83769;SDS011;73763;48.936;9.300;2023-12-07T08:00:22;17.10;;;12.90;;
83769;SDS011;73763;48.936;9.300;2023-12-07T08:02:47;15.97;;;12.87;;
83769;SDS011;73763;48.936;9.300;2023-12-07T08:05:13;13.55;;;11.27;;
83769;SDS011;73763;48.936;9.300;2023-12-07T08:07:39;12.85;;;10.55;;
83769;SDS011;73763;48.936;9.300;2023-12-07T08:10:05;12.97;;;11.37;;
83769;SDS011;73763;48.936;9.300;2023-12-07T08:12:31;12.70;;;10.57;;
83769;SDS011;73763;48.936;9.300;2023-12-07T08:14:57;14.73;;;11.32;;
83769;SDS011;73763;48.936;9.300;2023-12-07T08:17:23;13.80;;;11.05;;
83769;SDS011;73763;48.936;9.300;2023-12-07T08:19:49;15.23;;;11.63;;
83769;SDS011;73763;48.936;9.300;2023-12-07T08:22:14;17.58;;;13.10;;
83769;SDS011;73763;48.936;9.300;2023-12-07T08:24:41;19.92;;;16.50;;
83769;SDS011;73763;48.936;9.300;2023-12-07T08:27:06;19.30;;;15.43;;
83769;SDS011;73763;48.936;9.300;2023-12-07T08:29:32;16.97;;;13.57;;
83769;SDS011;73763;48.936;9.300;2023-12-07T08:31:58;18.17;;;14.07;;
83769;SDS011;73763;48.936;9.300;2023-12-07T08:34:24;13.57;;;11.95;;
83769;SDS011;73763;48.936;9.300;2023-12-07T08:36:50;11.63;;;9.68;;
83769;SDS011;73763;48.936;9.300;2023-12-07T08:39:15;11.60;;;9.85;;
83769;SDS011;73763;48.936;9.300;2023-12-07T08:41:41;10.80;;;9.67;;
83769;SDS011;73763;48.936;9.300;2023-12-07T08:44:06;11.73;;;9.67;;
83769;SDS011;73763;48.936;9.300;2023-12-07T08:46:32;10.80;;;9.30;;
83769;SDS011;73763;48.936;9.300;2023-12-07T08:48:57;11.83;;;8.93;;
83769;SDS011;73763;48.936;9.300;2023-12-07T08:51:23;11.52;;;9.07;;
83769;SDS011;73763;48.936;9.300;2023-12-07T08:53:49;11.40;;;9.63;;
83769;SDS011;73763;48.936;9.300;2023-12-07T08:56:14;11.20;;;9.30;;
83769;SDS011;73763;48.936;9.300;2023-12-07T08:58:40;12.17;;;9.73;;
83769;SDS011;73763;48.936;9.300;2023-12-07T09:01:05;12.35;;;9.27;;
83769;SDS011;73763;48.936;9.300;2023-12-07T09:03:31;12.87;;;9.20;;
83769;SDS011;73763;48.936;9.300;2023-12-07T09:05:57;11.40;;;9.45;;
83769;SDS011;73763;48.936;9.300;2023-12-07T09:08:23;11.27;;;9.45;;
83769;SDS011;73763;48.936;9.300;2023-12-07T09:10:48;11.97;;;9.57;;
83769;SDS011;73763;48.936;9.300;2023-12-07T09:13:14;10.73;;;8.82;;
83769;SDS011;73763;48.936;9.300;2023-12-07T09:15:39;11.63;;;9.20;;
83769;SDS011;73763;48.936;9.300;2023-12-07T09:18:05;11.07;;;9.37;;
83769;SDS011;73763;48.936;9.300;2023-12-07T09:20:32;11.35;;;8.73;;
83769;SDS011;73763;48.936;9.300;2023-12-07T09:23:00;10.57;;;8.32;;
83769;SDS011;73763;48.936;9.300;2023-12-07T09:25:25;11.32;;;9.27;;
83769;SDS011;73763;48.936;9.300;2023-12-07T09:27:51;11.60;;;9.00;;
83769;SDS011;73763;48.936;9.300;2023-12-07T09:30:16;9.63;;;8.33;;
83769;SDS011;73763;48.936;9.300;2023-12-07T09:32:42;11.27;;;9.10;;
83769;SDS011;73763;48.936;9.300;2023-12-07T09:35:09;10.90;;;8.98;;
83769;SDS011;73763;48.936;9.300;2023-12-07T09:37:35;12.40;;;9.18;;
83769;SDS011;73763;48.936;9.300;2023-12-07T09:40:00;11.10;;;8.73;;
83769;SDS011;73763;48.936;9.300;2023-12-07T09:42:26;11.77;;;8.95;;
83769;SDS011;73763;48.936;9.300;2023-12-07T09:44:52;12.48;;;9.57;;
83769;SDS011;73763;48.936;9.300;2023-12-07T09:47:19;11.15;;;8.73;;
83769;SDS011;73763;48.936;9.300;2023-12-07T09:49:45;10.93;;;9.10;;
83769;SDS011;73763;48.936;9.300;2023-12-07T09:52:11;12.60;;;8.93;;
83769;SDS011;73763;48.936;9.300;2023-12-07T09:54:42;12.55;;;8.63;;
83769;SDS011;73763;48.936;9.300;2023-12-07T09:57:08;11.80;;;8.50;;
83769;SDS011;73763;48.936;9.300;2023-12-07T09:59:34;9.18;;;7.95;;
83769;SDS011;73763;48.936;9.300;2023-12-07T10:02:00;10.13;;;7.78;;
83769;SDS011;73763;48.936;9.300;2023-12-07T10:04:26;9.27;;;7.80;;
83769;SDS011;73763;48.936;9.300;2023-12-07T10:06:52;9.30;;;7.87;;
83769;SDS011;73763;48.936;9.300;2023-12-07T10:09:18;9.20;;;8.00;;
83769;SDS011;73763;48.936;9.300;2023-12-07T10:11:44;10.57;;;7.95;;
83769;SDS011;73763;48.936;9.300;2023-12-07T10:14:09;9.90;;;8.05;;
83769;SDS011;73763;48.936;9.300;2023-12-07T10:16:35;11.40;;;9.23;;
83769;SDS011;73763;48.936;9.300;2023-12-07T10:19:12;10.35;;;8.88;;
83769;SDS011;73763;48.936;9.300;2023-12-07T10:21:42;9.82;;;8.77;;
83769;SDS011;73763;48.936;9.300;2023-12-07T10:24:08;11.23;;;8.35;;
83769;SDS011;73763;48.936;9.300;2023-12-07T10:26:39;11.75;;;9.05;;
83769;SDS011;73763;48.936;9.300;2023-12-07T10:29:05;10.60;;;8.17;;
83769;SDS011;73763;48.936;9.300;2023-12-07T10:31:31;9.88;;;8.10;;
83769;SDS011;73763;48.936;9.300;2023-12-07T10:33:58;12.00;;;8.27;;
83769;SDS011;73763;48.936;9.300;2023-12-07T10:36:24;9.48;;;7.80;;
83769;SDS011;73763;48.936;9.300;2023-12-07T10:38:50;10.23;;;7.80;;
83769;SDS011;73763;48.936;9.300;2023-12-07T10:41:16;9.95;;;7.22;;
83769;SDS011;73763;48.936;9.300;2023-12-07T10:44:04;12.30;;;7.95;;
83769;SDS011;73763;48.936;9.300;2023-12-07T10:46:33;8.63;;;6.88;;
83769;SDS011;73763;48.936;9.300;2023-12-07T10:49:05;9.50;;;7.33;;
83769;SDS011;73763;48.936;9.300;2023-12-07T10:51:42;7.63;;;6.30;;
83769;SDS011;73763;48.936;9.300;2023-12-07T10:54:15;9.10;;;7.17;;
83769;SDS011;73763;48.936;9.300;2023-12-07T10:56:46;8.93;;;6.60;;
83769;SDS011;73763;48.936;9.300;2023-12-07T10:59:13;8.30;;;6.55;;
83769;SDS011;73763;48.936;9.300;2023-12-07T11:01:39;9.23;;;7.03;;
83769;SDS011;73763;48.936;9.300;2023-12-07T11:04:05;10.07;;;7.28;;
83769;SDS011;73763;48.936;9.300;2023-12-07T11:06:34;10.48;;;7.05;;
83769;SDS011;73763;48.936;9.300;2023-12-07T11:09:01;9.80;;;6.70;;
83769;SDS011;73763;48.936;9.300;2023-12-07T11:14:11;7.80;;;6.57;;
83769;SDS011;73763;48.936;9.300;2023-12-07T11:16:41;8.77;;;6.55;;
83769;SDS011;73763;48.936;9.300;2023-12-07T11:22:11;9.57;;;6.38;;
83769;SDS011;73763;48.936;9.300;2023-12-07T11:24:37;10.10;;;6.55;;
83769;SDS011;73763;48.936;9.300;2023-12-07T11:27:16;8.38;;;6.43;;
83769;SDS011;73763;48.936;9.300;2023-12-07T11:29:41;8.80;;;6.18;;
83769;SDS011;73763;48.936;9.300;2023-12-07T11:32:07;8.70;;;7.23;;
83769;SDS011;73763;48.936;9.300;2023-12-07T11:34:40;10.60;;;7.50;;
83769;SDS011;73763;48.936;9.300;2023-12-07T11:37:07;8.15;;;6.60;;
83769;SDS011;73763;48.936;9.300;2023-12-07T11:39:37;7.67;;;6.43;;
83769;SDS011;73763;48.936;9.300;2023-12-07T11:44:44;7.53;;;6.07;;
83769;SDS011;73763;48.936;9.300;2023-12-07T11:47:16;7.72;;;5.55;;
83769;SDS011;73763;48.936;9.300;2023-12-07T11:49:45;7.55;;;5.47;;
83769;SDS011;73763;48.936;9.300;2023-12-07T11:52:15;7.30;;;5.90;;
83769;SDS011;73763;48.936;9.300;2023-12-07T11:54:44;7.78;;;5.65;;
83769;SDS011;73763;48.936;9.300;2023-12-07T11:57:10;8.18;;;5.30;;
83769;SDS011;73763;48.936;9.300;2023-12-07T11:59:36;7.27;;;4.83;;
83769;SDS011;73763;48.936;9.300;2023-12-07T12:02:02;7.60;;;4.70;;
83769;SDS011;73763;48.936;9.300;2023-12-07T12:04:28;6.38;;;5.25;;
83769;SDS011;73763;48.936;9.300;2023-12-07T12:06:54;6.40;;;4.53;;
83769;SDS011;73763;48.936;9.300;2023-12-07T12:09:19;8.07;;;4.90;;
83769;SDS011;73763;48.936;9.300;2023-12-07T12:11:45;7.23;;;4.93;;
83769;SDS011;73763;48.936;9.300;2023-12-07T12:14:14;6.75;;;4.55;;
83769;SDS011;73763;48.936;9.300;2023-12-07T12:16:41;7.75;;;5.28;;
83769;SDS011;73763;48.936;9.300;2023-12-07T12:19:07;7.78;;;4.95;;
83769;SDS011;73763;48.936;9.300;2023-12-07T12:21:34;7.03;;;4.97;;
83769;SDS011;73763;48.936;9.300;2023-12-07T12:24:00;8.23;;;5.07;;
83769;SDS011;73763;48.936;9.300;2023-12-07T12:26:26;6.67;;;5.10;;
83769;SDS011;73763;48.936;9.300;2023-12-07T12:28:52;6.38;;;4.75;;
83769;SDS011;73763;48.936;9.300;2023-12-07T12:31:17;6.32;;;4.03;;
83769;SDS011;73763;48.936;9.300;2023-12-07T12:33:43;6.40;;;4.47;;
83769;SDS011;73763;48.936;9.300;2023-12-07T12:36:09;6.93;;;4.10;;
83769;SDS011;73763;48.936;9.300;2023-12-07T12:38:35;5.95;;;4.20;;
83769;SDS011;73763;48.936;9.300;2023-12-07T12:41:01;7.03;;;3.95;;
83769;SDS011;73763;48.936;9.300;2023-12-07T12:43:27;5.43;;;4.00;;
83769;SDS011;73763;48.936;9.300;2023-12-07T12:45:53;6.55;;;4.22;;
83769;SDS011;73763;48.936;9.300;2023-12-07T12:48:19;7.43;;;4.10;;
83769;SDS011;73763;48.936;9.300;2023-12-07T12:50:44;5.70;;;4.05;;
83769;SDS011;73763;48.936;9.300;2023-12-07T12:53:10;7.10;;;4.27;;
83769;SDS011;73763;48.936;9.300;2023-12-07T12:55:40;4.82;;;3.78;;
83769;SDS011;73763;48.936;9.300;2023-12-07T12:58:06;3.83;;;2.67;;
83769;SDS011;73763;48.936;9.300;2023-12-07T13:00:33;3.90;;;2.70;;
83769;SDS011;73763;48.936;9.300;2023-12-07T13:03:00;4.68;;;2.88;;
83769;SDS011;73763;48.936;9.300;2023-12-07T13:05:27;5.30;;;3.10;;
83769;SDS011;73763;48.936;9.300;2023-12-07T13:07:52;6.13;;;3.55;;
83769;SDS011;73763;48.936;9.300;2023-12-07T13:10:18;5.43;;;3.20;;
83769;SDS011;73763;48.936;9.300;2023-12-07T13:12:43;4.32;;;3.05;;
83769;SDS011;73763;48.936;9.300;2023-12-07T13:15:09;5.30;;;3.53;;
83769;SDS011;73763;48.936;9.300;2023-12-07T13:17:35;7.80;;;3.28;;
83769;SDS011;73763;48.936;9.300;2023-12-07T13:20:00;7.10;;;3.80;;
83769;SDS011;73763;48.936;9.300;2023-12-07T13:22:26;4.53;;;3.38;;
83769;SDS011;73763;48.936;9.300;2023-12-07T13:24:51;4.90;;;3.23;;
83769;SDS011;73763;48.936;9.300;2023-12-07T13:27:17;6.75;;;3.83;;
83769;SDS011;73763;48.936;9.300;2023-12-07T13:29:42;5.93;;;4.20;;
83769;SDS011;73763;48.936;9.300;2023-12-07T13:32:08;6.80;;;4.32;;
83769;SDS011;73763;48.936;9.300;2023-12-07T13:34:34;9.40;;;6.20;;
83769;SDS011;73763;48.936;9.300;2023-12-07T13:36:59;7.67;;;4.00;;
83769;SDS011;73763;48.936;9.300;2023-12-07T13:39:25;6.57;;;4.07;;
83769;SDS011;73763;48.936;9.300;2023-12-07T13:41:50;6.07;;;3.70;;
83769;SDS011;73763;48.936;9.300;2023-12-07T13:44:16;6.03;;;4.80;;
83769;SDS011;73763;48.936;9.300;2023-12-07T13:46:41;8.10;;;6.03;;
83769;SDS011;73763;48.936;9.300;2023-12-07T13:49:07;9.73;;;5.25;;
83769;SDS011;73763;48.936;9.300;2023-12-07T13:51:32;7.23;;;5.27;;
83769;SDS011;73763;48.936;9.300;2023-12-07T13:53:58;7.68;;;5.55;;
83769;SDS011;73763;48.936;9.300;2023-12-07T13:56:23;6.97;;;4.13;;
83769;SDS011;73763;48.936;9.300;2023-12-07T13:58:49;7.60;;;4.30;;
83769;SDS011;73763;48.936;9.300;2023-12-07T14:01:14;10.90;;;6.13;;
83769;SDS011;73763;48.936;9.300;2023-12-07T14:03:40;8.15;;;3.95;;
83769;SDS011;73763;48.936;9.300;2023-12-07T14:06:05;5.90;;;3.87;;
83769;SDS011;73763;48.936;9.300;2023-12-07T14:08:31;6.72;;;3.83;;
83769;SDS011;73763;48.936;9.300;2023-12-07T14:10:57;5.32;;;3.20;;
83769;SDS011;73763;48.936;9.300;2023-12-07T14:13:22;4.80;;;2.60;;
83769;SDS011;73763;48.936;9.300;2023-12-07T14:15:48;4.70;;;2.70;;
83769;SDS011;73763;48.936;9.300;2023-12-07T14:18:14;5.40;;;2.70;;
83769;SDS011;73763;48.936;9.300;2023-12-07T14:20:43;6.20;;;3.07;;
83769;SDS011;73763;48.936;9.300;2023-12-07T14:23:08;6.07;;;2.60;;
83769;SDS011;73763;48.936;9.300;2023-12-07T14:25:34;5.37;;;3.10;;
83769;SDS011;73763;48.936;9.300;2023-12-07T14:27:59;4.32;;;2.53;;
83769;SDS011;73763;48.936;9.300;2023-12-07T14:30:25;3.47;;;2.53;;
83769;SDS011;73763;48.936;9.300;2023-12-07T14:32:50;4.57;;;2.63;;